Terminal Aerodrome Forecast
Issued by NWS

Home | Current Version | Previous Version | Text Only | Print | Product List | Glossary On
Versions: 1 2 3 4 5 6 7 8 9 10 11 12
000
FTUS45 KPSR 181700
TAFIWA
TAF
KIWA 181720Z 1818/1918 18010KT P6SM SCT120 BKN200
     FM182200 21010KT P6SM SCT100 BKN150 OVC200
      TEMPO 1822/1901 21012G20KT
     FM190400 14007KT P6SM VCSH SCT080 BKN120 BKN200=

USA.gov is the U.S. government's official web portal to all federal, state and local government web resources and services.